CAJ9 weather

Fort Ware Airport
Fort Ware, British Columbia, Canada

Public forecast

Using degrees Celsius for public forecast. Weather courtesy of forecast.io.

Closest aviation weather report (METAR) to Fort Ware Airport

Closest report is Fort Nelson Airport, 128.5 nm (238.0 km) NE. Retrieved 2019/10/15 18:00 UTC (42 minutes ago):

CYYE 151800Z 07005KT 3SM -SN SCT010 OVC025 01/M00 A2969 RMK SF4SC4 SLP075

Closest aviation forecast (TAF) to Fort Ware Airport

Closest forecast is Fort Nelson Airport, 128.5 nm (238.0 km) NE. Retrieved 2019/10/15 19:48 UTC (0 seconds ago):

TAF CYYE 151845Z 1519/1607 08006KT 5SM -SN SCT010 OVC025 TEMPO 1519/1521 3SM -RASN BR OVC010 FM152100 09008KT P6SM SCT010 OVC025 TEMPO 1521/1601 4SM -RA BR FEW005 OVC015 FM160100 VRB03KT P6SM -RA FEW005 OVC015 TEMPO 1601/1607 2SM -RA BR OVC005 RMK NXT FCST BY 160100Z